createdAt,value
2023-05-25T00:04:48.699Z,65.66
2023-05-25T00:09:51.910Z,65.58
2023-05-25T00:14:55.290Z,65.61
2023-05-25T00:20:09.508Z,65.32
2023-05-25T00:25:13.037Z,65.28
2023-05-25T00:30:16.356Z,65.35
2023-05-25T00:35:19.581Z,65.51
2023-05-25T00:40:23.156Z,65.45
2023-05-25T00:45:26.365Z,65.60
2023-05-25T00:50:43.766Z,65.68
2023-05-25T00:55:59.015Z,65.84
2023-05-25T01:01:04.072Z,66.03
2023-05-25T01:06:16.038Z,66.01
2023-05-25T01:11:28.746Z,65.83
2023-05-25T01:16:32.441Z,65.89
2023-05-25T01:22:05.475Z,65.88
2023-05-25T01:27:19.427Z,65.92
2023-05-25T01:32:23.019Z,66.12
2023-05-25T01:37:28.190Z,66.25
2023-05-25T01:42:32.845Z,66.43
2023-05-25T01:48:33.349Z,66.38
2023-05-25T01:54:14.143Z,66.45
2023-05-25T01:59:21.781Z,66.54
2023-05-25T02:04:26.455Z,66.42
2023-05-25T02:09:30.555Z,66.43
2023-05-25T02:14:35.838Z,66.24
2023-05-25T02:19:38.919Z,66.30
2023-05-25T02:24:42.030Z,66.35
2023-05-25T02:29:45.813Z,66.41
2023-05-25T02:34:49.180Z,66.38
2023-05-25T02:39:53.717Z,66.27
2023-05-25T02:44:57.104Z,66.16
2023-05-25T02:50:00.415Z,66.21
2023-05-25T02:55:04.631Z,66.37
2023-05-25T03:00:12.624Z,66.37
2023-05-25T03:05:16.835Z,66.44
2023-05-25T03:10:20.659Z,66.61
2023-05-25T03:15:24.411Z,66.67
2023-05-25T03:20:28.412Z,66.75
2023-05-25T03:25:32.664Z,66.61
2023-05-25T03:30:36.405Z,66.58
2023-05-25T03:35:39.609Z,66.57
2023-05-25T03:40:43.037Z,67.12
2023-05-25T03:45:46.574Z,66.85
2023-05-25T03:50:50.149Z,66.95
2023-05-25T03:55:53.305Z,67.07
2023-05-25T04:00:56.734Z,67.17
2023-05-25T04:06:00.780Z,67.38
2023-05-25T04:11:06.545Z,67.45
2023-05-25T04:16:10.400Z,67.48
2023-05-25T04:21:13.843Z,67.60
2023-05-25T04:26:18.390Z,67.68
2023-05-25T04:31:25.155Z,67.85
2023-05-25T04:36:47.815Z,67.86
2023-05-25T04:41:53.133Z,67.96
2023-05-25T04:46:56.857Z,68.13
2023-05-25T04:52:07.447Z,68.24
2023-05-25T04:57:11.465Z,68.17
2023-05-25T05:02:14.654Z,68.00
2023-05-25T05:07:18.490Z,67.94
2023-05-25T05:12:21.826Z,67.79
2023-05-25T05:17:29.233Z,67.75
2023-05-25T05:22:33.525Z,67.91
2023-05-25T05:33:29.844Z,67.82
2023-05-25T05:38:33.360Z,67.79
2023-05-25T05:43:36.668Z,67.55
2023-05-25T05:48:39.776Z,67.24
2023-05-25T05:53:42.871Z,66.92
2023-05-25T05:58:47.633Z,66.59
2023-05-25T06:03:53.108Z,66.29
2023-05-25T06:08:56.537Z,66.22
2023-05-25T06:13:59.962Z,66.39
2023-05-25T06:19:03.637Z,66.46
2023-05-25T06:24:07.390Z,66.43
2023-05-25T06:29:10.593Z,66.43
2023-05-25T06:34:14.576Z,66.48
2023-05-25T06:39:17.816Z,66.26
2023-05-25T06:44:21.388Z,65.94
2023-05-25T06:49:29.436Z,66.01
2023-05-25T06:54:33.193Z,65.96
2023-05-25T06:59:36.267Z,65.88
2023-05-25T07:04:39.380Z,65.84
2023-05-25T07:09:42.446Z,65.65
2023-05-25T07:14:48.497Z,65.85
2023-05-25T07:19:51.629Z,65.68
2023-05-25T07:24:54.689Z,65.56
2023-05-25T07:33:29.920Z,65.54
2023-05-25T07:38:33.228Z,65.39
2023-05-25T07:43:37.649Z,65.11
2023-05-25T07:48:40.787Z,65.21
2023-05-25T07:53:43.862Z,65.22
2023-05-25T07:58:47.017Z,65.18
2023-05-25T08:03:50.582Z,64.99
2023-05-25T08:08:53.713Z,64.83
2023-05-25T08:13:58.145Z,64.87
2023-05-25T08:19:01.809Z,64.73
2023-05-25T08:24:08.614Z,64.65
2023-05-25T08:29:11.753Z,64.43
2023-05-25T08:34:15.265Z,64.33
2023-05-25T08:39:19.137Z,64.40
2023-05-25T08:44:22.535Z,64.49
2023-05-25T08:49:29.711Z,64.26
2023-05-25T08:54:37.482Z,64.19
2023-05-25T09:00:17.940Z,64.07
2023-05-25T09:05:24.694Z,64.27
2023-05-25T09:10:30.720Z,64.35
2023-05-25T09:15:34.412Z,64.48
2023-05-25T09:20:37.760Z,64.23
2023-05-25T09:25:41.532Z,64.03
2023-05-25T09:30:48.990Z,64.19
2023-05-25T09:35:52.497Z,64.16
2023-05-25T09:40:56.275Z,64.09
2023-05-25T09:45:59.560Z,64.05
2023-05-25T09:51:04.850Z,64.28
2023-05-25T09:56:07.996Z,64.48
2023-05-25T10:01:11.920Z,65.18
2023-05-25T10:06:16.416Z,66.91
2023-05-25T10:11:22.815Z,65.29
2023-05-25T10:16:29.703Z,63.26
2023-05-25T10:21:37.002Z,63.43
2023-05-25T10:26:42.658Z,62.95
2023-05-25T10:31:46.423Z,63.21
2023-05-25T10:36:51.385Z,62.79
2023-05-25T10:41:55.260Z,62.72
2023-05-25T10:47:02.235Z,62.36
2023-05-25T10:52:05.730Z,62.64
2023-05-25T10:57:11.518Z,62.04
2023-05-25T11:02:16.191Z,61.95
2023-05-25T11:37:55.517Z,62.46
2023-05-25T11:43:00.933Z,62.85
2023-05-25T11:48:05.404Z,63.06
2023-05-25T11:53:08.757Z,62.80
2023-05-25T11:58:11.909Z,62.44
2023-05-25T12:03:33.851Z,62.26
2023-05-25T12:08:38.246Z,62.20
2023-05-25T12:13:41.539Z,62.39
2023-05-25T12:18:44.661Z,62.60
2023-05-25T12:23:48.715Z,62.46
2023-05-25T12:29:05.929Z,62.50
2023-05-25T12:34:18.546Z,62.94
2023-05-25T12:39:30.304Z,63.39
2023-05-25T13:33:30.056Z,62.64
2023-05-25T13:38:37.253Z,62.61
2023-05-25T13:43:40.487Z,62.38
2023-05-25T13:48:47.531Z,62.24
2023-05-25T13:53:50.570Z,62.23
2023-05-25T13:58:54.621Z,62.40
2023-05-25T14:04:00.007Z,62.23
2023-05-25T14:09:03.543Z,62.46
2023-05-25T14:14:16.513Z,62.55
2023-05-25T14:19:26.659Z,62.75
2023-05-25T14:24:29.768Z,62.90
2023-05-25T14:35:09.697Z,62.93
2023-05-25T14:40:13.654Z,63.16
2023-05-25T14:45:18.463Z,63.16
2023-05-25T14:50:21.608Z,63.03
2023-05-25T14:55:25.089Z,63.10
2023-05-25T15:00:29.168Z,63.06
2023-05-25T15:05:32.264Z,62.90
2023-05-25T15:10:35.525Z,62.85
2023-05-25T15:15:38.805Z,62.93
2023-05-25T15:20:47.955Z,63.18
2023-05-25T15:25:51.208Z,63.15
2023-05-25T15:30:54.607Z,63.33
2023-05-25T15:35:57.959Z,63.38
2023-05-25T15:41:01.213Z,63.23
2023-05-25T15:46:04.707Z,62.99
2023-05-25T15:51:07.856Z,62.99
2023-05-25T15:56:11.265Z,63.35
2023-05-25T16:01:14.618Z,62.92
2023-05-25T16:06:17.812Z,62.38
2023-05-25T16:11:21.019Z,62.35
2023-05-25T16:16:24.690Z,62.31
2023-05-25T16:21:27.864Z,62.33
2023-05-25T16:26:30.986Z,62.14
2023-05-25T16:31:34.898Z,62.27
2023-05-25T16:36:38.100Z,62.59
2023-05-25T16:41:41.477Z,62.77
2023-05-25T16:46:46.119Z,62.82
2023-05-25T16:51:49.377Z,63.23
2023-05-25T16:56:52.620Z,63.30
2023-05-25T17:01:56.540Z,63.32
2023-05-25T17:06:59.812Z,63.38
2023-05-25T17:12:03.810Z,63.46
2023-05-25T17:17:07.057Z,63.59
2023-05-25T17:22:10.772Z,63.80
2023-05-25T17:27:14.082Z,63.89
2023-05-25T17:38:18.641Z,64.51
2023-05-25T17:43:21.709Z,64.60
2023-05-25T17:48:24.811Z,64.70
2023-05-25T17:53:27.996Z,64.67
2023-05-25T17:58:39.221Z,64.72
2023-05-25T18:03:43.165Z,64.89
2023-05-25T18:08:46.496Z,64.94
2023-05-25T18:13:49.985Z,65.01
2023-05-25T18:18:52.989Z,65.25
2023-05-25T18:23:56.135Z,65.53
2023-05-25T18:28:59.290Z,65.56
2023-05-25T18:34:09.507Z,65.63
2023-05-25T18:39:12.717Z,65.74
2023-05-25T18:44:15.916Z,66.07
2023-05-25T18:49:19.225Z,66.23
2023-05-25T18:54:22.573Z,66.45
2023-05-25T18:59:26.168Z,66.62
2023-05-25T19:04:29.466Z,66.77
2023-05-25T19:09:32.700Z,66.78
2023-05-25T19:14:35.869Z,66.68
2023-05-25T19:19:39.021Z,66.67
2023-05-25T19:24:44.286Z,66.77
2023-05-25T19:33:33.471Z,66.88
2023-05-25T19:38:41.154Z,66.91
2023-05-25T19:43:45.839Z,67.19
2023-05-25T19:48:49.021Z,67.16
2023-05-25T19:53:52.561Z,67.06
2023-05-25T19:58:55.907Z,67.13
2023-05-25T20:03:59.070Z,67.13
2023-05-25T20:09:48.005Z,67.09
2023-05-25T20:14:51.293Z,67.16
2023-05-25T20:19:56.540Z,67.24
2023-05-25T20:25:01.139Z,66.97
2023-05-25T20:33:33.132Z,67.01
2023-05-25T20:38:36.279Z,67.10
2023-05-25T20:43:39.994Z,67.28
2023-05-25T20:48:46.963Z,67.43
2023-05-25T20:53:50.214Z,67.63
2023-05-25T20:58:53.723Z,67.82
2023-05-25T21:03:57.244Z,67.90
2023-05-25T21:09:00.990Z,68.01
2023-05-25T21:14:04.674Z,68.05
2023-05-25T21:19:07.820Z,68.36
2023-05-25T21:24:11.120Z,68.63
2023-05-25T21:29:14.379Z,68.69
2023-05-25T21:34:17.747Z,68.76
2023-05-25T21:39:21.042Z,68.89
2023-05-25T21:44:27.382Z,69.05
2023-05-25T21:49:30.845Z,69.23
2023-05-25T21:54:33.927Z,69.37
2023-05-25T21:59:37.240Z,69.49
2023-05-25T22:04:46.909Z,69.61
2023-05-25T22:09:50.135Z,69.63
2023-05-25T22:14:53.355Z,69.61
2023-05-25T22:20:07.332Z,69.68
2023-05-25T22:25:13.519Z,69.91
2023-05-25T22:35:54.038Z,69.94
2023-05-25T22:40:57.440Z,69.88
2023-05-25T22:46:00.711Z,69.98
2023-05-25T22:51:04.301Z,70.03
2023-05-25T22:56:07.777Z,70.23
2023-05-25T23:01:10.911Z,70.23
2023-05-25T23:06:14.134Z,70.12
2023-05-25T23:11:17.543Z,69.94
2023-05-25T23:16:21.318Z,69.96
2023-05-25T23:21:24.991Z,70.14
2023-05-25T23:26:28.274Z,70.13
2023-05-25T23:31:31.486Z,70.30
2023-05-25T23:36:34.884Z,70.38
2023-05-25T23:41:38.108Z,70.45
2023-05-25T23:46:41.272Z,70.45
2023-05-25T23:51:44.570Z,70.57
2023-05-25T23:56:47.744Z,70.78
